• location
  • image
mod_vvisit_countermod_vvisit_countermod_vvisit_countermod_vvisit_countermod_vvisit_countermod_vvisit_counter
mod_vvisit_counterToday596
mod_vvisit_counterYesterday512
mod_vvisit_counterThis week1108
mod_vvisit_counterLast week4355
mod_vvisit_counterThis month13579
mod_vvisit_counterLast month21340
mod_vvisit_counterAll days778969

We have: 17 guests, 2 bots online
Your IP: 54.145.117.60
 , 
Today: Nov 21, 2017
Airport / Company / List of services

List of services

  

Services of Siauliai International Airport:

 

Leading (follow me)

Ground services

Aircraft loading/unloading

Aircraft parking

Aircraft security

Aircraft fuel supply

Passenger baggage service

Business class passenger service

Submission of information to passengers

Serving meals to passengers and crew

Additional services for aircraft crewmembers

Aviation Security

Dining Cafe

First medical aid

Hotel reservations

Transporting crew to/from the city

Taxi booking 

Border procedures

Customs procedures

 

Today

Tuesday, 21 November 2017

Weather Forecast

Siauliai °C
   

Aviation Weather Forecast

[source: ADDS]
METAR
EYSA 211720Z 24004KT CAVOK M01/M01 Q1010 R32R/29//95 R32L/29//95 BLU NOSIG =
TAF
TAF EYSA 211704Z 2118/2203 24008KT 4000 BR SCT005 BKN010 TEMPO 2118/2121 1600 SHRASN BKN005 BKN015CB TEMPO 2121/2124 0600 FZDZ FZFG OVC002 =
SR / SS: 06:12 / 14:15 UTC (EYSA 2017-11-21)

Search

Who's Online

We have 19 guests online

tic logo en